sensor_id;sensor_type;location;lat;lon;timestamp;P1;durP1;ratioP1;P2;durP2;ratioP2
9745;SDS011;4912;50.836;12.958;2022-09-25T00:00:07;10.43;;;6.47;;
9745;SDS011;4912;50.836;12.958;2022-09-25T00:02:39;12.93;;;6.70;;
9745;SDS011;4912;50.836;12.958;2022-09-25T00:05:09;13.00;;;6.63;;
9745;SDS011;4912;50.836;12.958;2022-09-25T00:07:41;10.47;;;6.30;;
9745;SDS011;4912;50.836;12.958;2022-09-25T00:10:11;9.10;;;6.75;;
9745;SDS011;4912;50.836;12.958;2022-09-25T00:12:41;11.77;;;7.00;;
9745;SDS011;4912;50.836;12.958;2022-09-25T00:15:11;12.20;;;6.80;;
9745;SDS011;4912;50.836;12.958;2022-09-25T00:17:41;9.97;;;6.93;;
9745;SDS011;4912;50.836;12.958;2022-09-25T00:20:12;10.13;;;7.47;;
9745;SDS011;4912;50.836;12.958;2022-09-25T00:22:45;10.48;;;6.68;;
9745;SDS011;4912;50.836;12.958;2022-09-25T00:25:16;10.57;;;6.55;;
9745;SDS011;4912;50.836;12.958;2022-09-25T00:27:46;11.45;;;6.57;;
9745;SDS011;4912;50.836;12.958;2022-09-25T00:30:17;9.45;;;6.72;;
9745;SDS011;4912;50.836;12.958;2022-09-25T00:32:47;10.00;;;7.13;;
9745;SDS011;4912;50.836;12.958;2022-09-25T00:35:17;11.83;;;7.17;;
9745;SDS011;4912;50.836;12.958;2022-09-25T00:37:50;11.03;;;6.43;;
9745;SDS011;4912;50.836;12.958;2022-09-25T00:40:20;8.80;;;6.40;;
9745;SDS011;4912;50.836;12.958;2022-09-25T00:42:50;8.30;;;6.47;;
9745;SDS011;4912;50.836;12.958;2022-09-25T00:45:20;10.13;;;6.77;;
9745;SDS011;4912;50.836;12.958;2022-09-25T00:47:52;8.80;;;6.55;;
9745;SDS011;4912;50.836;12.958;2022-09-25T00:50:28;9.38;;;6.47;;
9745;SDS011;4912;50.836;12.958;2022-09-25T00:53:07;9.25;;;6.40;;
9745;SDS011;4912;50.836;12.958;2022-09-25T00:55:43;9.10;;;6.30;;
9745;SDS011;4912;50.836;12.958;2022-09-25T00:58:15;12.07;;;7.20;;
9745;SDS011;4912;50.836;12.958;2022-09-25T01:00:51;10.02;;;7.07;;
9745;SDS011;4912;50.836;12.958;2022-09-25T01:05:52;9.48;;;6.82;;
9745;SDS011;4912;50.836;12.958;2022-09-25T01:08:28;9.77;;;7.18;;
9745;SDS011;4912;50.836;12.958;2022-09-25T01:11:00;9.35;;;6.32;;
9745;SDS011;4912;50.836;12.958;2022-09-25T01:13:30;9.00;;;6.80;;
9745;SDS011;4912;50.836;12.958;2022-09-25T01:16:03;12.48;;;6.65;;
9745;SDS011;4912;50.836;12.958;2022-09-25T01:18:55;9.02;;;6.70;;
9745;SDS011;4912;50.836;12.958;2022-09-25T01:21:38;9.50;;;7.30;;
9745;SDS011;4912;50.836;12.958;2022-09-25T01:24:27;10.43;;;6.70;;
9745;SDS011;4912;50.836;12.958;2022-09-25T01:27:30;9.65;;;6.68;;
9745;SDS011;4912;50.836;12.958;2022-09-25T01:30:10;10.48;;;6.75;;
9745;SDS011;4912;50.836;12.958;2022-09-25T01:32:47;10.02;;;7.13;;
9745;SDS011;4912;50.836;12.958;2022-09-25T01:35:34;9.73;;;7.00;;
9745;SDS011;4912;50.836;12.958;2022-09-25T01:38:17;11.25;;;6.93;;
9745;SDS011;4912;50.836;12.958;2022-09-25T01:40:56;10.45;;;7.50;;
9745;SDS011;4912;50.836;12.958;2022-09-25T01:43:34;10.20;;;6.78;;
9745;SDS011;4912;50.836;12.958;2022-09-25T01:46:12;11.35;;;7.15;;
9745;SDS011;4912;50.836;12.958;2022-09-25T01:48:46;10.27;;;6.90;;
9745;SDS011;4912;50.836;12.958;2022-09-25T01:51:23;11.10;;;7.18;;
9745;SDS011;4912;50.836;12.958;2022-09-25T01:53:59;10.25;;;7.03;;
9745;SDS011;4912;50.836;12.958;2022-09-25T01:56:37;9.30;;;7.10;;
9745;SDS011;4912;50.836;12.958;2022-09-25T01:59:15;9.73;;;6.88;;
9745;SDS011;4912;50.836;12.958;2022-09-25T02:01:50;11.45;;;7.45;;
9745;SDS011;4912;50.836;12.958;2022-09-25T02:04:25;12.00;;;7.60;;
9745;SDS011;4912;50.836;12.958;2022-09-25T02:07:01;10.93;;;7.47;;
9745;SDS011;4912;50.836;12.958;2022-09-25T02:09:36;13.05;;;7.20;;
9745;SDS011;4912;50.836;12.958;2022-09-25T02:12:12;9.75;;;7.60;;
9745;SDS011;4912;50.836;12.958;2022-09-25T02:14:47;10.52;;;7.32;;
9745;SDS011;4912;50.836;12.958;2022-09-25T02:17:27;11.90;;;7.47;;
9745;SDS011;4912;50.836;12.958;2022-09-25T02:20:15;10.48;;;7.35;;
9745;SDS011;4912;50.836;12.958;2022-09-25T02:23:05;11.98;;;7.07;;
9745;SDS011;4912;50.836;12.958;2022-09-25T02:25:44;11.48;;;7.43;;
9745;SDS011;4912;50.836;12.958;2022-09-25T02:28:25;11.93;;;7.95;;
9745;SDS011;4912;50.836;12.958;2022-09-25T02:30:55;11.10;;;7.63;;
9745;SDS011;4912;50.836;12.958;2022-09-25T02:33:30;10.70;;;7.68;;
9745;SDS011;4912;50.836;12.958;2022-09-25T02:36:01;11.40;;;7.97;;
9745;SDS011;4912;50.836;12.958;2022-09-25T02:38:35;12.00;;;7.90;;
9745;SDS011;4912;50.836;12.958;2022-09-25T02:41:08;15.20;;;7.60;;
9745;SDS011;4912;50.836;12.958;2022-09-25T02:43:49;11.93;;;7.22;;
9745;SDS011;4912;50.836;12.958;2022-09-25T02:46:34;10.70;;;6.95;;
9745;SDS011;4912;50.836;12.958;2022-09-25T02:49:18;11.87;;;7.50;;
9745;SDS011;4912;50.836;12.958;2022-09-25T02:51:56;10.05;;;6.95;;
9745;SDS011;4912;50.836;12.958;2022-09-25T02:54:36;11.68;;;7.22;;
9745;SDS011;4912;50.836;12.958;2022-09-25T02:57:15;10.57;;;7.38;;
9745;SDS011;4912;50.836;12.958;2022-09-25T02:59:54;10.00;;;7.20;;
9745;SDS011;4912;50.836;12.958;2022-09-25T03:02:30;11.50;;;7.95;;
9745;SDS011;4912;50.836;12.958;2022-09-25T03:05:07;10.45;;;7.38;;
9745;SDS011;4912;50.836;12.958;2022-09-25T03:07:41;11.90;;;7.47;;
9745;SDS011;4912;50.836;12.958;2022-09-25T03:10:23;11.23;;;7.80;;
9745;SDS011;4912;50.836;12.958;2022-09-25T03:12:55;10.52;;;7.53;;
9745;SDS011;4912;50.836;12.958;2022-09-25T03:15:25;9.90;;;7.40;;
9745;SDS011;4912;50.836;12.958;2022-09-25T03:17:56;10.17;;;8.00;;
9745;SDS011;4912;50.836;12.958;2022-09-25T03:20:28;11.67;;;7.60;;
9745;SDS011;4912;50.836;12.958;2022-09-25T03:22:58;10.48;;;7.30;;
9745;SDS011;4912;50.836;12.958;2022-09-25T03:25:28;10.00;;;7.20;;
9745;SDS011;4912;50.836;12.958;2022-09-25T03:27:58;11.27;;;7.78;;
9745;SDS011;4912;50.836;12.958;2022-09-25T03:30:29;11.25;;;7.82;;
9745;SDS011;4912;50.836;12.958;2022-09-25T03:32:59;9.63;;;7.20;;
9745;SDS011;4912;50.836;12.958;2022-09-25T03:35:32;13.23;;;7.67;;
9745;SDS011;4912;50.836;12.958;2022-09-25T03:38:02;11.48;;;6.80;;
9745;SDS011;4912;50.836;12.958;2022-09-25T03:40:33;11.35;;;8.10;;
9745;SDS011;4912;50.836;12.958;2022-09-25T03:43:03;9.77;;;6.57;;
9745;SDS011;4912;50.836;12.958;2022-09-25T03:45:33;9.98;;;7.38;;
9745;SDS011;4912;50.836;12.958;2022-09-25T03:48:03;11.67;;;7.20;;
9745;SDS011;4912;50.836;12.958;2022-09-25T03:50:35;9.83;;;7.93;;
9745;SDS011;4912;50.836;12.958;2022-09-25T03:53:07;12.48;;;7.30;;
9745;SDS011;4912;50.836;12.958;2022-09-25T03:55:37;12.67;;;7.70;;
9745;SDS011;4912;50.836;12.958;2022-09-25T03:58:07;11.07;;;7.80;;
9745;SDS011;4912;50.836;12.958;2022-09-25T04:00:38;10.23;;;7.30;;
9745;SDS011;4912;50.836;12.958;2022-09-25T04:03:08;9.63;;;6.97;;
9745;SDS011;4912;50.836;12.958;2022-09-25T04:05:40;10.57;;;7.30;;
9745;SDS011;4912;50.836;12.958;2022-09-25T04:08:11;12.68;;;6.75;;
9745;SDS011;4912;50.836;12.958;2022-09-25T04:10:41;10.10;;;6.93;;
9745;SDS011;4912;50.836;12.958;2022-09-25T04:13:11;14.37;;;7.20;;
9745;SDS011;4912;50.836;12.958;2022-09-25T04:15:42;9.95;;;6.75;;
9745;SDS011;4912;50.836;12.958;2022-09-25T04:18:12;10.77;;;7.10;;
9745;SDS011;4912;50.836;12.958;2022-09-25T04:20:45;9.43;;;6.15;;
9745;SDS011;4912;50.836;12.958;2022-09-25T04:23:15;10.40;;;6.32;;
9745;SDS011;4912;50.836;12.958;2022-09-25T04:25:45;8.45;;;6.28;;
9745;SDS011;4912;50.836;12.958;2022-09-25T04:28:15;14.43;;;6.50;;
9745;SDS011;4912;50.836;12.958;2022-09-25T04:30:47;10.57;;;6.65;;
9745;SDS011;4912;50.836;12.958;2022-09-25T04:33:18;10.40;;;7.13;;
9745;SDS011;4912;50.836;12.958;2022-09-25T04:36:03;9.63;;;6.78;;
9745;SDS011;4912;50.836;12.958;2022-09-25T04:38:34;10.68;;;6.63;;
9745;SDS011;4912;50.836;12.958;2022-09-25T04:41:04;10.37;;;6.30;;
9745;SDS011;4912;50.836;12.958;2022-09-25T04:43:35;13.13;;;6.85;;
9745;SDS011;4912;50.836;12.958;2022-09-25T04:46:07;9.50;;;6.55;;
9745;SDS011;4912;50.836;12.958;2022-09-25T04:48:47;11.02;;;6.68;;
9745;SDS011;4912;50.836;12.958;2022-09-25T04:51:19;9.20;;;6.77;;
9745;SDS011;4912;50.836;12.958;2022-09-25T04:53:49;10.23;;;6.82;;
9745;SDS011;4912;50.836;12.958;2022-09-25T04:56:19;12.97;;;7.70;;
9745;SDS011;4912;50.836;12.958;2022-09-25T04:58:50;11.60;;;7.75;;
9745;SDS011;4912;50.836;12.958;2022-09-25T05:01:20;10.30;;;7.28;;
9745;SDS011;4912;50.836;12.958;2022-09-25T05:03:50;11.43;;;7.87;;
9745;SDS011;4912;50.836;12.958;2022-09-25T05:06:24;12.32;;;7.88;;
9745;SDS011;4912;50.836;12.958;2022-09-25T05:08:55;11.55;;;7.55;;
9745;SDS011;4912;50.836;12.958;2022-09-25T05:11:25;9.80;;;7.47;;
9745;SDS011;4912;50.836;12.958;2022-09-25T05:13:55;10.30;;;7.30;;
9745;SDS011;4912;50.836;12.958;2022-09-25T05:16:25;10.45;;;7.25;;
9745;SDS011;4912;50.836;12.958;2022-09-25T05:18:56;11.38;;;7.28;;
9745;SDS011;4912;50.836;12.958;2022-09-25T05:24:00;11.18;;;7.90;;
9745;SDS011;4912;50.836;12.958;2022-09-25T05:26:31;10.60;;;7.80;;
9745;SDS011;4912;50.836;12.958;2022-09-25T05:29:01;12.27;;;8.60;;
9745;SDS011;4912;50.836;12.958;2022-09-25T05:31:31;9.70;;;7.73;;
9745;SDS011;4912;50.836;12.958;2022-09-25T05:36:34;12.38;;;7.93;;
9745;SDS011;4912;50.836;12.958;2022-09-25T05:39:04;10.55;;;7.40;;
9745;SDS011;4912;50.836;12.958;2022-09-25T05:41:39;11.30;;;7.47;;
9745;SDS011;4912;50.836;12.958;2022-09-25T05:44:09;11.23;;;8.37;;
9745;SDS011;4912;50.836;12.958;2022-09-25T05:46:40;11.52;;;7.68;;
9745;SDS011;4912;50.836;12.958;2022-09-25T05:49:10;11.75;;;7.18;;
9745;SDS011;4912;50.836;12.958;2022-09-25T05:51:43;10.93;;;8.07;;
9745;SDS011;4912;50.836;12.958;2022-09-25T05:54:13;10.70;;;7.97;;
9745;SDS011;4912;50.836;12.958;2022-09-25T05:56:43;11.40;;;7.87;;
9745;SDS011;4912;50.836;12.958;2022-09-25T05:59:14;10.65;;;8.02;;
9745;SDS011;4912;50.836;12.958;2022-09-25T06:01:44;11.20;;;7.53;;
9745;SDS011;4912;50.836;12.958;2022-09-25T06:04:15;12.57;;;8.10;;
9745;SDS011;4912;50.836;12.958;2022-09-25T06:06:47;11.53;;;8.53;;
9745;SDS011;4912;50.836;12.958;2022-09-25T06:09:18;12.15;;;7.53;;
9745;SDS011;4912;50.836;12.958;2022-09-25T06:11:48;10.83;;;8.23;;
9745;SDS011;4912;50.836;12.958;2022-09-25T06:14:19;11.05;;;8.63;;
9745;SDS011;4912;50.836;12.958;2022-09-25T06:16:50;11.55;;;7.85;;
9745;SDS011;4912;50.836;12.958;2022-09-25T06:19:20;13.83;;;7.87;;
9745;SDS011;4912;50.836;12.958;2022-09-25T06:21:52;13.40;;;8.20;;
9745;SDS011;4912;50.836;12.958;2022-09-25T06:24:23;17.55;;;10.13;;
9745;SDS011;4912;50.836;12.958;2022-09-25T06:26:53;14.65;;;10.77;;
9745;SDS011;4912;50.836;12.958;2022-09-25T06:29:23;15.63;;;10.67;;
9745;SDS011;4912;50.836;12.958;2022-09-25T06:31:53;12.73;;;9.32;;
9745;SDS011;4912;50.836;12.958;2022-09-25T06:34:23;9.83;;;8.53;;
9745;SDS011;4912;50.836;12.958;2022-09-25T06:36:56;10.07;;;7.93;;
9745;SDS011;4912;50.836;12.958;2022-09-25T06:39:29;10.75;;;7.70;;
9745;SDS011;4912;50.836;12.958;2022-09-25T06:41:59;10.60;;;7.50;;
9745;SDS011;4912;50.836;12.958;2022-09-25T06:44:30;11.35;;;8.27;;
9745;SDS011;4912;50.836;12.958;2022-09-25T06:47:00;19.20;;;8.37;;
9745;SDS011;4912;50.836;12.958;2022-09-25T06:49:30;13.27;;;8.93;;
9745;SDS011;4912;50.836;12.958;2022-09-25T06:52:03;10.70;;;8.37;;
9745;SDS011;4912;50.836;12.958;2022-09-25T06:54:33;12.70;;;9.10;;
9745;SDS011;4912;50.836;12.958;2022-09-25T06:57:09;13.70;;;9.07;;
9745;SDS011;4912;50.836;12.958;2022-09-25T06:59:39;12.30;;;9.10;;
9745;SDS011;4912;50.836;12.958;2022-09-25T07:02:09;11.17;;;7.77;;
9745;SDS011;4912;50.836;12.958;2022-09-25T07:04:52;11.65;;;8.48;;
9745;SDS011;4912;50.836;12.958;2022-09-25T07:07:25;13.50;;;8.03;;
9745;SDS011;4912;50.836;12.958;2022-09-25T07:09:56;11.57;;;8.85;;
9745;SDS011;4912;50.836;12.958;2022-09-25T07:12:26;13.63;;;7.95;;
9745;SDS011;4912;50.836;12.958;2022-09-25T07:14:59;12.57;;;8.38;;
9745;SDS011;4912;50.836;12.958;2022-09-25T07:17:29;12.80;;;7.67;;
9745;SDS011;4912;50.836;12.958;2022-09-25T07:20:00;12.45;;;8.55;;
9745;SDS011;4912;50.836;12.958;2022-09-25T07:22:33;10.95;;;8.15;;
9745;SDS011;4912;50.836;12.958;2022-09-25T07:25:04;13.57;;;8.57;;
9745;SDS011;4912;50.836;12.958;2022-09-25T07:27:35;12.98;;;9.07;;
9745;SDS011;4912;50.836;12.958;2022-09-25T07:30:06;15.23;;;8.95;;
9745;SDS011;4912;50.836;12.958;2022-09-25T07:32:38;12.30;;;9.35;;
9745;SDS011;4912;50.836;12.958;2022-09-25T07:35:08;15.77;;;10.20;;
9745;SDS011;4912;50.836;12.958;2022-09-25T07:37:40;28.83;;;21.17;;
9745;SDS011;4912;50.836;12.958;2022-09-25T07:40:11;12.75;;;8.68;;
9745;SDS011;4912;50.836;12.958;2022-09-25T07:42:41;12.70;;;8.32;;
9745;SDS011;4912;50.836;12.958;2022-09-25T07:45:11;11.00;;;8.73;;
9745;SDS011;4912;50.836;12.958;2022-09-25T07:47:41;11.03;;;8.60;;
9745;SDS011;4912;50.836;12.958;2022-09-25T07:50:11;10.60;;;8.07;;
9745;SDS011;4912;50.836;12.958;2022-09-25T07:52:44;12.30;;;8.18;;
9745;SDS011;4912;50.836;12.958;2022-09-25T07:55:14;10.32;;;7.78;;
9745;SDS011;4912;50.836;12.958;2022-09-25T07:57:44;10.73;;;7.55;;
9745;SDS011;4912;50.836;12.958;2022-09-25T08:00:15;8.98;;;7.40;;
9745;SDS011;4912;50.836;12.958;2022-09-25T08:02:53;11.32;;;8.32;;
9745;SDS011;4912;50.836;12.958;2022-09-25T08:05:25;15.35;;;9.25;;
9745;SDS011;4912;50.836;12.958;2022-09-25T08:07:58;12.10;;;8.93;;
9745;SDS011;4912;50.836;12.958;2022-09-25T08:10:29;10.68;;;8.07;;
9745;SDS011;4912;50.836;12.958;2022-09-25T08:12:59;10.27;;;7.57;;
9745;SDS011;4912;50.836;12.958;2022-09-25T08:15:29;10.70;;;7.88;;
9745;SDS011;4912;50.836;12.958;2022-09-25T08:17:59;12.00;;;8.27;;
9745;SDS011;4912;50.836;12.958;2022-09-25T08:20:29;9.43;;;7.43;;
9745;SDS011;4912;50.836;12.958;2022-09-25T08:23:04;12.52;;;7.85;;
9745;SDS011;4912;50.836;12.958;2022-09-25T08:25:34;9.98;;;8.25;;
9745;SDS011;4912;50.836;12.958;2022-09-25T08:28:04;10.30;;;7.47;;
9745;SDS011;4912;50.836;12.958;2022-09-25T08:30:34;7.93;;;6.93;;
9745;SDS011;4912;50.836;12.958;2022-09-25T08:35:41;9.13;;;6.95;;
9745;SDS011;4912;50.836;12.958;2022-09-25T08:38:15;8.82;;;7.15;;
9745;SDS011;4912;50.836;12.958;2022-09-25T08:40:47;8.88;;;6.78;;
9745;SDS011;4912;50.836;12.958;2022-09-25T08:43:23;8.35;;;6.93;;
9745;SDS011;4912;50.836;12.958;2022-09-25T08:45:55;10.75;;;7.50;;
9745;SDS011;4912;50.836;12.958;2022-09-25T08:48:42;10.88;;;7.60;;
9745;SDS011;4912;50.836;12.958;2022-09-25T08:51:32;8.57;;;7.68;;
9745;SDS011;4912;50.836;12.958;2022-09-25T08:54:18;8.75;;;7.85;;
9745;SDS011;4912;50.836;12.958;2022-09-25T08:56:53;13.23;;;7.70;;
9745;SDS011;4912;50.836;12.958;2022-09-25T08:59:29;9.15;;;7.78;;
9745;SDS011;4912;50.836;12.958;2022-09-25T09:02:08;9.45;;;7.65;;
9745;SDS011;4912;50.836;12.958;2022-09-25T09:04:44;12.48;;;8.27;;
9745;SDS011;4912;50.836;12.958;2022-09-25T09:07:19;11.23;;;7.95;;
9745;SDS011;4912;50.836;12.958;2022-09-25T09:09:59;12.20;;;8.50;;
9745;SDS011;4912;50.836;12.958;2022-09-25T09:12:34;11.73;;;8.10;;
9745;SDS011;4912;50.836;12.958;2022-09-25T09:15:15;8.90;;;7.90;;
9745;SDS011;4912;50.836;12.958;2022-09-25T09:17:56;12.63;;;8.25;;
9745;SDS011;4912;50.836;12.958;2022-09-25T09:20:30;10.63;;;7.97;;
9745;SDS011;4912;50.836;12.958;2022-09-25T09:23:09;10.25;;;7.80;;
9745;SDS011;4912;50.836;12.958;2022-09-25T09:25:52;9.65;;;7.38;;
9745;SDS011;4912;50.836;12.958;2022-09-25T09:28:49;9.95;;;7.53;;
9745;SDS011;4912;50.836;12.958;2022-09-25T09:31:36;9.73;;;7.80;;
9745;SDS011;4912;50.836;12.958;2022-09-25T09:34:37;10.00;;;8.00;;
9745;SDS011;4912;50.836;12.958;2022-09-25T09:37:37;11.88;;;7.22;;
9745;SDS011;4912;50.836;12.958;2022-09-25T09:40:31;7.55;;;6.13;;
9745;SDS011;4912;50.836;12.958;2022-09-25T09:43:28;9.77;;;7.80;;
9745;SDS011;4912;50.836;12.958;2022-09-25T09:46:24;9.50;;;7.70;;
9745;SDS011;4912;50.836;12.958;2022-09-25T09:49:09;13.57;;;7.28;;
9745;SDS011;4912;50.836;12.958;2022-09-25T09:51:47;9.43;;;7.93;;
9745;SDS011;4912;50.836;12.958;2022-09-25T09:54:23;8.75;;;7.45;;
9745;SDS011;4912;50.836;12.958;2022-09-25T09:57:02;13.52;;;7.00;;
9745;SDS011;4912;50.836;12.958;2022-09-25T09:59:44;9.85;;;7.30;;
9745;SDS011;4912;50.836;12.958;2022-09-25T10:02:23;8.93;;;7.22;;
9745;SDS011;4912;50.836;12.958;2022-09-25T10:04:59;9.68;;;6.63;;
9745;SDS011;4912;50.836;12.958;2022-09-25T10:07:35;8.98;;;7.07;;
9745;SDS011;4912;50.836;12.958;2022-09-25T10:10:10;9.40;;;7.38;;
9745;SDS011;4912;50.836;12.958;2022-09-25T10:12:44;11.23;;;7.75;;
9745;SDS011;4912;50.836;12.958;2022-09-25T10:15:23;10.48;;;7.43;;
9745;SDS011;4912;50.836;12.958;2022-09-25T10:17:59;11.75;;;6.47;;
9745;SDS011;4912;50.836;12.958;2022-09-25T10:20:34;8.23;;;6.55;;
9745;SDS011;4912;50.836;12.958;2022-09-25T10:23:15;6.70;;;5.10;;
9745;SDS011;4912;50.836;12.958;2022-09-25T10:25:58;11.93;;;4.97;;
9745;SDS011;4912;50.836;12.958;2022-09-25T10:28:30;5.57;;;4.30;;
9745;SDS011;4912;50.836;12.958;2022-09-25T10:31:04;6.28;;;4.35;;
9745;SDS011;4912;50.836;12.958;2022-09-25T10:33:38;7.90;;;4.68;;
9745;SDS011;4912;50.836;12.958;2022-09-25T10:36:08;6.18;;;4.70;;
9745;SDS011;4912;50.836;12.958;2022-09-25T10:38:43;4.97;;;4.20;;
9745;SDS011;4912;50.836;12.958;2022-09-25T10:41:27;5.25;;;3.88;;
9745;SDS011;4912;50.836;12.958;2022-09-25T10:43:59;5.03;;;3.80;;
9745;SDS011;4912;50.836;12.958;2022-09-25T10:46:33;7.72;;;4.10;;
9745;SDS011;4912;50.836;12.958;2022-09-25T10:49:32;6.65;;;4.47;;
9745;SDS011;4912;50.836;12.958;2022-09-25T10:52:28;6.93;;;4.93;;
9745;SDS011;4912;50.836;12.958;2022-09-25T10:55:02;9.65;;;4.65;;
9745;SDS011;4912;50.836;12.958;2022-09-25T10:57:44;5.47;;;4.05;;
9745;SDS011;4912;50.836;12.958;2022-09-25T11:00:19;7.03;;;4.22;;
9745;SDS011;4912;50.836;12.958;2022-09-25T11:02:56;5.72;;;4.40;;
9745;SDS011;4912;50.836;12.958;2022-09-25T11:05:30;5.80;;;4.00;;
9745;SDS011;4912;50.836;12.958;2022-09-25T11:08:02;6.43;;;4.03;;
9745;SDS011;4912;50.836;12.958;2022-09-25T11:10:35;6.90;;;3.60;;
9745;SDS011;4912;50.836;12.958;2022-09-25T11:13:18;7.85;;;4.00;;
9745;SDS011;4912;50.836;12.958;2022-09-25T11:15:55;7.03;;;3.80;;
9745;SDS011;4912;50.836;12.958;2022-09-25T11:18:41;6.65;;;3.72;;
9745;SDS011;4912;50.836;12.958;2022-09-25T11:21:16;4.68;;;3.38;;
9745;SDS011;4912;50.836;12.958;2022-09-25T11:23:57;5.15;;;3.90;;
9745;SDS011;4912;50.836;12.958;2022-09-25T11:26:36;6.95;;;3.58;;
9745;SDS011;4912;50.836;12.958;2022-09-25T11:29:13;6.32;;;3.78;;
9745;SDS011;4912;50.836;12.958;2022-09-25T11:31:49;6.18;;;3.88;;
9745;SDS011;4912;50.836;12.958;2022-09-25T11:34:32;5.32;;;4.05;;
9745;SDS011;4912;50.836;12.958;2022-09-25T11:37:21;6.32;;;3.85;;
9745;SDS011;4912;50.836;12.958;2022-09-25T11:40:04;4.00;;;3.20;;
9745;SDS011;4912;50.836;12.958;2022-09-25T11:43:13;6.80;;;3.90;;
9745;SDS011;4912;50.836;12.958;2022-09-25T11:45:52;5.47;;;3.70;;
9745;SDS011;4912;50.836;12.958;2022-09-25T11:48:29;5.72;;;3.20;;
9745;SDS011;4912;50.836;12.958;2022-09-25T11:51:15;5.43;;;3.60;;
9745;SDS011;4912;50.836;12.958;2022-09-25T11:53:58;6.15;;;3.75;;
9745;SDS011;4912;50.836;12.958;2022-09-25T11:57:00;6.78;;;3.58;;
9745;SDS011;4912;50.836;12.958;2022-09-25T11:59:41;5.97;;;3.75;;
9745;SDS011;4912;50.836;12.958;2022-09-25T12:02:29;5.07;;;3.55;;
9745;SDS011;4912;50.836;12.958;2022-09-25T12:05:17;4.25;;;3.47;;
9745;SDS011;4912;50.836;12.958;2022-09-25T12:08:17;5.85;;;3.70;;
9745;SDS011;4912;50.836;12.958;2022-09-25T12:10:58;5.65;;;4.25;;
9745;SDS011;4912;50.836;12.958;2022-09-25T12:13:40;4.80;;;3.60;;
9745;SDS011;4912;50.836;12.958;2022-09-25T12:16:23;4.32;;;3.30;;
9745;SDS011;4912;50.836;12.958;2022-09-25T12:19:06;6.78;;;3.70;;
9745;SDS011;4912;50.836;12.958;2022-09-25T12:21:50;5.20;;;4.18;;
9745;SDS011;4912;50.836;12.958;2022-09-25T12:24:33;5.97;;;5.00;;
9745;SDS011;4912;50.836;12.958;2022-09-25T12:27:20;6.78;;;4.82;;
9745;SDS011;4912;50.836;12.958;2022-09-25T12:30:06;6.78;;;4.65;;
9745;SDS011;4912;50.836;12.958;2022-09-25T12:32:57;5.53;;;4.70;;
9745;SDS011;4912;50.836;12.958;2022-09-25T12:35:45;5.28;;;3.78;;
9745;SDS011;4912;50.836;12.958;2022-09-25T12:38:26;6.03;;;4.00;;
9745;SDS011;4912;50.836;12.958;2022-09-25T12:41:10;4.47;;;3.30;;
9745;SDS011;4912;50.836;12.958;2022-09-25T12:43:48;6.38;;;4.10;;
9745;SDS011;4912;50.836;12.958;2022-09-25T12:46:24;6.05;;;3.80;;
9745;SDS011;4912;50.836;12.958;2022-09-25T12:48:59;4.43;;;3.63;;
9745;SDS011;4912;50.836;12.958;2022-09-25T12:51:40;5.43;;;3.53;;
9745;SDS011;4912;50.836;12.958;2022-09-25T12:54:19;5.13;;;3.60;;
9745;SDS011;4912;50.836;12.958;2022-09-25T12:56:58;5.28;;;4.13;;
9745;SDS011;4912;50.836;12.958;2022-09-25T12:59:33;4.63;;;4.13;;
9745;SDS011;4912;50.836;12.958;2022-09-25T13:02:14;5.70;;;3.78;;
9745;SDS011;4912;50.836;12.958;2022-09-25T13:04:55;7.30;;;4.78;;
9745;SDS011;4912;50.836;12.958;2022-09-25T13:07:35;4.95;;;4.20;;
9745;SDS011;4912;50.836;12.958;2022-09-25T13:10:17;5.80;;;4.20;;
9745;SDS011;4912;50.836;12.958;2022-09-25T13:12:57;5.65;;;4.05;;
9745;SDS011;4912;50.836;12.958;2022-09-25T13:15:38;4.95;;;4.45;;
9745;SDS011;4912;50.836;12.958;2022-09-25T13:18:12;7.80;;;4.55;;
9745;SDS011;4912;50.836;12.958;2022-09-25T13:20:49;4.70;;;4.20;;
9745;SDS011;4912;50.836;12.958;2022-09-25T13:23:25;6.88;;;4.63;;
9745;SDS011;4912;50.836;12.958;2022-09-25T13:26:00;5.68;;;4.30;;
9745;SDS011;4912;50.836;12.958;2022-09-25T13:28:46;13.88;;;4.70;;
9745;SDS011;4912;50.836;12.958;2022-09-25T13:31:23;6.80;;;4.38;;
9745;SDS011;4912;50.836;12.958;2022-09-25T13:33:56;7.60;;;4.95;;
9745;SDS011;4912;50.836;12.958;2022-09-25T13:36:35;5.72;;;4.45;;
9745;SDS011;4912;50.836;12.958;2022-09-25T13:39:15;7.70;;;4.70;;
9745;SDS011;4912;50.836;12.958;2022-09-25T13:42:12;11.93;;;4.60;;
9745;SDS011;4912;50.836;12.958;2022-09-25T13:44:58;6.65;;;4.50;;
9745;SDS011;4912;50.836;12.958;2022-09-25T13:47:55;7.57;;;4.78;;
9745;SDS011;4912;50.836;12.958;2022-09-25T13:50:37;7.60;;;4.82;;
9745;SDS011;4912;50.836;12.958;2022-09-25T13:53:19;8.40;;;5.03;;
9745;SDS011;4912;50.836;12.958;2022-09-25T13:59:03;8.38;;;5.15;;
9745;SDS011;4912;50.836;12.958;2022-09-25T14:01:56;8.40;;;5.13;;
9745;SDS011;4912;50.836;12.958;2022-09-25T14:04:52;8.40;;;5.43;;
9745;SDS011;4912;50.836;12.958;2022-09-25T14:07:24;7.88;;;4.80;;
9745;SDS011;4912;50.836;12.958;2022-09-25T14:09:56;6.57;;;4.55;;
9745;SDS011;4912;50.836;12.958;2022-09-25T14:12:35;6.43;;;4.60;;
9745;SDS011;4912;50.836;12.958;2022-09-25T14:15:17;8.52;;;4.93;;
9745;SDS011;4912;50.836;12.958;2022-09-25T14:17:55;6.25;;;4.47;;
9745;SDS011;4912;50.836;12.958;2022-09-25T14:20:31;9.30;;;4.60;;
9745;SDS011;4912;50.836;12.958;2022-09-25T14:23:11;7.53;;;5.00;;
9745;SDS011;4912;50.836;12.958;2022-09-25T14:25:43;7.35;;;5.25;;
9745;SDS011;4912;50.836;12.958;2022-09-25T14:28:16;7.28;;;4.95;;
9745;SDS011;4912;50.836;12.958;2022-09-25T14:30:51;10.05;;;5.05;;
9745;SDS011;4912;50.836;12.958;2022-09-25T14:33:59;11.13;;;4.88;;
9745;SDS011;4912;50.836;12.958;2022-09-25T14:36:56;7.88;;;5.22;;
9745;SDS011;4912;50.836;12.958;2022-09-25T14:39:43;8.20;;;5.35;;
9745;SDS011;4912;50.836;12.958;2022-09-25T14:42:29;10.75;;;5.05;;
9745;SDS011;4912;50.836;12.958;2022-09-25T14:48:26;9.20;;;6.15;;
9745;SDS011;4912;50.836;12.958;2022-09-25T14:51:05;8.02;;;6.13;;
9745;SDS011;4912;50.836;12.958;2022-09-25T14:53:39;4.97;;;2.70;;
9745;SDS011;4912;50.836;12.958;2022-09-25T14:56:12;4.80;;;2.50;;
9745;SDS011;4912;50.836;12.958;2022-09-25T14:58:44;4.72;;;2.72;;
9745;SDS011;4912;50.836;12.958;2022-09-25T15:01:21;6.30;;;2.22;;
9745;SDS011;4912;50.836;12.958;2022-09-25T15:03:55;4.70;;;2.10;;
9745;SDS011;4912;50.836;12.958;2022-09-25T15:06:33;5.78;;;2.65;;
9745;SDS011;4912;50.836;12.958;2022-09-25T15:09:17;3.05;;;2.08;;
9745;SDS011;4912;50.836;12.958;2022-09-25T15:11:58;4.90;;;1.90;;
9745;SDS011;4912;50.836;12.958;2022-09-25T15:14:38;3.25;;;2.10;;
9745;SDS011;4912;50.836;12.958;2022-09-25T15:17:10;3.67;;;2.25;;
9745;SDS011;4912;50.836;12.958;2022-09-25T15:19:47;3.75;;;2.13;;
9745;SDS011;4912;50.836;12.958;2022-09-25T15:22:20;8.65;;;2.97;;
9745;SDS011;4912;50.836;12.958;2022-09-25T15:24:53;7.20;;;4.10;;
9745;SDS011;4912;50.836;12.958;2022-09-25T15:27:26;8.48;;;4.80;;
9745;SDS011;4912;50.836;12.958;2022-09-25T15:29:58;7.22;;;4.00;;
9745;SDS011;4912;50.836;12.958;2022-09-25T15:32:31;6.18;;;4.18;;
9745;SDS011;4912;50.836;12.958;2022-09-25T15:35:10;7.78;;;4.88;;
9745;SDS011;4912;50.836;12.958;2022-09-25T15:37:47;8.35;;;5.60;;
9745;SDS011;4912;50.836;12.958;2022-09-25T15:40:19;7.43;;;4.95;;
9745;SDS011;4912;50.836;12.958;2022-09-25T15:42:54;7.85;;;5.00;;
9745;SDS011;4912;50.836;12.958;2022-09-25T15:45:35;7.78;;;4.20;;
9745;SDS011;4912;50.836;12.958;2022-09-25T15:48:15;8.32;;;4.47;;
9745;SDS011;4912;50.836;12.958;2022-09-25T15:50:52;8.45;;;5.07;;
9745;SDS011;4912;50.836;12.958;2022-09-25T15:53:28;8.13;;;4.50;;
9745;SDS011;4912;50.836;12.958;2022-09-25T15:56:03;8.13;;;4.40;;
9745;SDS011;4912;50.836;12.958;2022-09-25T15:58:44;9.77;;;4.10;;
9745;SDS011;4912;50.836;12.958;2022-09-25T16:01:18;7.45;;;3.42;;
9745;SDS011;4912;50.836;12.958;2022-09-25T16:04:06;4.53;;;3.08;;
9745;SDS011;4912;50.836;12.958;2022-09-25T16:06:50;4.38;;;3.38;;